createdAt,value
2019-01-28T00:00:37.908Z,1.87
2019-01-28T00:03:09.861Z,1.52
2019-01-28T00:05:41.753Z,1.67
2019-01-28T00:08:13.531Z,1.60
2019-01-28T00:10:45.305Z,1.60
2019-01-28T00:13:17.062Z,1.70
2019-01-28T00:15:49.407Z,1.95
2019-01-28T00:18:21.442Z,1.82
2019-01-28T00:20:53.334Z,1.67
2019-01-28T00:23:24.907Z,1.85
2019-01-28T00:25:56.737Z,1.80
2019-01-28T00:30:59.314Z,1.65
2019-01-28T00:33:30.879Z,1.65
2019-01-28T00:36:02.746Z,1.60
2019-01-28T00:41:05.745Z,1.72
2019-01-28T00:46:08.314Z,1.60
2019-01-28T00:48:40.370Z,1.70
2019-01-28T00:51:12.075Z,1.50
2019-01-28T00:53:44.773Z,1.60
2019-01-28T00:56:16.714Z,1.60
2019-01-28T01:01:19.314Z,1.62
2019-01-28T01:03:50.987Z,1.50
2019-01-28T01:06:22.841Z,1.72
2019-01-28T01:08:54.592Z,1.60
2019-01-28T01:11:26.305Z,1.67
2019-01-28T01:13:57.904Z,1.50
2019-01-28T01:16:29.386Z,1.40
2019-01-28T01:19:01.069Z,1.50
2019-01-28T01:21:32.795Z,1.60
2019-01-28T01:26:42.278Z,1.55
2019-01-28T01:29:13.841Z,1.25
2019-01-28T01:31:45.593Z,1.47
2019-01-28T01:34:17.318Z,1.72
2019-01-28T01:36:48.887Z,1.47
2019-01-28T01:39:20.756Z,1.40
2019-01-28T01:44:23.045Z,1.42
2019-01-28T01:46:55.291Z,1.40
2019-01-28T01:49:27.305Z,1.50
2019-01-28T01:51:58.865Z,1.40
2019-01-28T01:54:30.383Z,1.40
2019-01-28T01:57:02.366Z,1.20
2019-01-28T01:59:34.305Z,1.50
2019-01-28T02:02:05.858Z,1.40
2019-01-28T02:04:37.377Z,1.15
2019-01-28T02:07:09.064Z,1.50
2019-01-28T02:09:40.753Z,1.67
2019-01-28T02:12:12.386Z,1.60
2019-01-28T02:14:44.065Z,1.50
2019-01-28T02:17:15.737Z,1.20
2019-01-28T02:19:47.744Z,1.30
2019-01-28T02:24:50.313Z,1.52
2019-01-28T02:27:21.977Z,1.80
2019-01-28T02:29:53.786Z,1.30
2019-01-28T02:34:56.313Z,1.70
2019-01-28T02:37:28.322Z,1.37
2019-01-28T02:39:59.926Z,1.55
2019-01-28T02:42:31.672Z,1.50
2019-01-28T02:45:03.401Z,1.30
2019-01-28T02:47:35.310Z,1.30
2019-01-28T02:50:09.815Z,1.37
2019-01-28T02:52:41.496Z,1.50
2019-01-28T02:55:13.309Z,1.60
2019-01-28T02:57:45.313Z,1.50
2019-01-28T03:00:26.629Z,1.52
2019-01-28T03:02:58.370Z,1.52
2019-01-28T03:05:30.081Z,1.40
2019-01-28T03:08:01.814Z,1.45
2019-01-28T03:10:33.618Z,1.40
2019-01-28T03:13:05.771Z,1.42
2019-01-28T03:18:08.313Z,1.47
2019-01-28T03:20:40.510Z,1.30
2019-01-28T03:23:12.550Z,1.30
2019-01-28T03:25:44.321Z,1.70
2019-01-28T03:28:15.822Z,1.32
2019-01-28T03:30:47.604Z,1.30
2019-01-28T03:33:19.325Z,1.25
2019-01-28T03:35:50.840Z,1.40
2019-01-28T03:38:22.636Z,1.57
2019-01-28T03:40:54.386Z,1.40
2019-01-28T03:43:26.074Z,1.60
2019-01-28T03:45:57.753Z,1.30
2019-01-28T03:51:00.322Z,1.55
2019-01-28T03:53:32.313Z,1.40
2019-01-28T03:56:03.861Z,1.60
2019-01-28T03:58:35.633Z,1.40
2019-01-28T04:01:07.593Z,1.80
2019-01-28T04:03:39.302Z,1.70
2019-01-28T04:06:11.376Z,1.50
2019-01-28T04:08:43.316Z,1.40
2019-01-28T04:11:14.843Z,1.40
2019-01-28T04:13:46.580Z,1.57
2019-01-28T04:16:18.633Z,1.72
2019-01-28T04:18:50.350Z,1.50
2019-01-28T04:21:22.474Z,1.80
2019-01-28T04:23:54.077Z,1.50
2019-01-28T04:26:25.783Z,1.40
2019-01-28T04:31:28.758Z,1.57
2019-01-28T04:36:31.327Z,1.72
2019-01-28T04:39:02.881Z,1.77
2019-01-28T04:41:34.786Z,1.67
2019-01-28T04:46:37.312Z,1.67
2019-01-28T04:49:08.835Z,1.60
2019-01-28T04:51:40.640Z,1.82
2019-01-28T04:54:12.444Z,1.52
2019-01-28T04:56:44.320Z,1.92
2019-01-28T04:59:15.981Z,1.70
2019-01-28T05:01:47.731Z,1.82
2019-01-28T05:04:19.597Z,2.12
2019-01-28T05:06:51.321Z,1.57
2019-01-28T05:09:22.932Z,1.82
2019-01-28T05:11:54.803Z,2.00
2019-01-28T05:16:57.284Z,1.57
2019-01-28T05:19:30.716Z,1.50
2019-01-28T05:22:02.661Z,2.10
2019-01-28T05:24:34.641Z,2.00
2019-01-28T05:27:06.551Z,1.60
2019-01-28T05:29:38.324Z,1.62
2019-01-28T05:32:10.321Z,1.50
2019-01-28T05:34:41.887Z,2.25
2019-01-28T05:37:14.312Z,1.55
2019-01-28T05:39:45.848Z,2.05
2019-01-28T05:42:17.611Z,1.62
2019-01-28T05:44:50.163Z,1.50
2019-01-28T05:47:21.883Z,1.75
2019-01-28T05:49:53.794Z,1.95
2019-01-28T05:54:56.314Z,1.55
2019-01-28T05:57:27.818Z,1.85
2019-01-28T05:59:59.418Z,1.85
2019-01-28T06:02:31.496Z,1.67
2019-01-28T06:05:03.305Z,1.67
2019-01-28T06:07:34.893Z,1.70
2019-01-28T06:10:07.783Z,1.65
2019-01-28T06:15:13.730Z,1.27
2019-01-28T06:17:45.631Z,1.50
2019-01-28T06:20:20.771Z,1.75
2019-01-28T06:22:53.311Z,1.70
2019-01-28T06:25:24.863Z,1.67
2019-01-28T06:27:56.766Z,1.57
2019-01-28T06:33:04.074Z,1.40
2019-01-28T06:35:35.758Z,1.40
2019-01-28T06:40:38.914Z,1.40
2019-01-28T06:43:10.851Z,1.40
2019-01-28T06:45:42.757Z,1.37
2019-01-28T06:48:14.782Z,1.40
2019-01-28T06:53:17.302Z,1.30
2019-01-28T06:55:49.025Z,1.45
2019-01-28T06:58:20.833Z,1.40
2019-01-28T07:00:52.590Z,1.27
2019-01-28T07:03:24.106Z,1.50
2019-01-28T07:05:55.447Z,1.40
2019-01-28T07:08:27.312Z,1.40
2019-01-28T07:10:59.275Z,1.65
2019-01-28T07:13:30.832Z,1.40
2019-01-28T07:16:03.078Z,1.20
2019-01-28T07:18:34.761Z,1.30
2019-01-28T07:23:37.279Z,1.37
2019-01-28T07:26:08.985Z,1.37
2019-01-28T07:28:40.691Z,1.60
2019-01-28T07:33:43.258Z,1.12
2019-01-28T07:36:14.882Z,1.50
2019-01-28T07:38:46.742Z,1.50
2019-01-28T07:43:49.303Z,1.50
2019-01-28T07:46:20.840Z,1.40
2019-01-28T07:48:52.410Z,1.37
2019-01-28T07:51:24.071Z,1.50
2019-01-28T07:53:55.773Z,1.27
2019-01-28T07:58:58.417Z,1.20
2019-01-28T08:01:30.088Z,1.52
2019-01-28T08:04:01.722Z,1.30
2019-01-28T08:09:04.536Z,1.32
2019-01-28T08:11:35.597Z,1.02
2019-01-28T08:14:07.757Z,1.32
2019-01-28T08:19:10.305Z,1.50
2019-01-28T08:21:41.878Z,1.27
2019-01-28T08:24:13.775Z,1.17
2019-01-28T08:29:16.307Z,1.30
2019-01-28T08:31:47.809Z,1.30
2019-01-28T08:34:19.377Z,1.62
2019-01-28T08:36:51.074Z,1.30
2019-01-28T08:39:22.800Z,1.12
2019-01-28T08:41:54.405Z,1.30
2019-01-28T08:44:26.070Z,1.47
2019-01-28T08:46:57.729Z,1.12
2019-01-28T08:49:29.346Z,1.10
2019-01-28T08:52:00.816Z,1.12
2019-01-28T08:54:32.609Z,1.17
2019-01-28T08:57:04.457Z,1.10
2019-01-28T08:59:36.313Z,1.20
2019-01-28T09:02:08.135Z,1.00
2019-01-28T09:04:39.754Z,1.07
2019-01-28T09:09:42.302Z,1.30
2019-01-28T09:12:13.977Z,0.88
2019-01-28T09:14:45.735Z,1.20
2019-01-28T09:19:48.305Z,1.10
2019-01-28T09:22:20.767Z,1.00
2019-01-28T09:27:23.407Z,1.10
2019-01-28T09:32:54.863Z,0.80
2019-01-28T09:35:26.395Z,1.20
2019-01-28T09:37:58.067Z,1.20
2019-01-28T09:40:32.831Z,1.10
2019-01-28T09:43:04.619Z,0.98
2019-01-28T09:45:42.307Z,1.00
2019-01-28T09:48:16.782Z,1.00
2019-01-28T09:53:19.305Z,1.20
2019-01-28T09:55:50.802Z,1.10
2019-01-28T09:58:22.606Z,1.10
2019-01-28T10:00:54.767Z,1.10
2019-01-28T10:03:26.678Z,0.90
2019-01-28T10:05:58.373Z,0.88
2019-01-28T10:08:30.103Z,0.98
2019-01-28T10:11:01.757Z,1.17
2019-01-28T10:16:04.310Z,0.93
2019-01-28T10:18:41.754Z,0.90
2019-01-28T10:21:09.362Z,1.20
2019-01-28T10:23:41.362Z,1.00
2019-01-28T10:26:13.054Z,0.88
2019-01-28T10:28:45.297Z,1.00
2019-01-28T10:31:16.818Z,0.90
2019-01-28T10:33:48.585Z,1.00
2019-01-28T10:36:22.737Z,1.00
2019-01-28T10:38:54.305Z,0.90
2019-01-28T10:41:25.806Z,1.00
2019-01-28T10:43:57.593Z,1.00
2019-01-28T10:46:29.276Z,1.00
2019-01-28T10:49:01.302Z,1.00
2019-01-28T10:51:33.298Z,1.00
2019-01-28T10:54:05.423Z,1.20
2019-01-28T10:56:37.366Z,1.00
2019-01-28T11:01:55.018Z,1.00
2019-01-28T11:04:26.752Z,1.00
2019-01-28T11:09:29.348Z,0.95
2019-01-28T11:12:01.754Z,1.10
2019-01-28T11:17:04.341Z,0.80
2019-01-28T11:19:36.303Z,1.05
2019-01-28T11:22:07.972Z,0.85
2019-01-28T11:24:39.894Z,1.10
2019-01-28T11:27:11.805Z,1.00
2019-01-28T11:29:43.862Z,1.00
2019-01-28T11:32:15.865Z,1.00
2019-01-28T11:34:47.824Z,0.80
2019-01-28T11:37:19.773Z,0.70
2019-01-28T11:39:51.475Z,1.00
2019-01-28T11:42:23.312Z,1.00
2019-01-28T11:44:55.024Z,1.00
2019-01-28T11:47:42.418Z,1.10
2019-01-28T11:50:14.796Z,1.00
2019-01-28T11:52:46.462Z,0.90
2019-01-28T11:55:18.296Z,0.93
2019-01-28T11:57:50.259Z,0.80
2019-01-28T12:00:41.706Z,0.80
2019-01-28T12:05:47.260Z,1.00
2019-01-28T12:08:18.820Z,0.80
2019-01-28T12:10:50.493Z,0.90
2019-01-28T12:13:22.567Z,1.00
2019-01-28T12:15:54.362Z,0.80
2019-01-28T12:18:26.774Z,0.80
2019-01-28T12:23:28.700Z,0.90
2019-01-28T12:26:00.451Z,0.90
2019-01-28T12:28:32.302Z,0.80
2019-01-28T12:31:03.899Z,1.00
2019-01-28T12:33:35.749Z,0.90
2019-01-28T12:38:38.292Z,1.02
2019-01-28T12:41:17.388Z,0.80
2019-01-28T12:43:43.769Z,0.90
2019-01-28T12:46:15.394Z,0.80
2019-01-28T12:48:47.373Z,0.82
2019-01-28T12:51:19.045Z,1.00
2019-01-28T12:53:50.773Z,0.90
2019-01-28T12:58:53.302Z,0.80
2019-01-28T13:01:24.865Z,0.80
2019-01-28T13:03:56.750Z,0.85
2019-01-28T13:08:59.301Z,0.80
2019-01-28T13:11:30.841Z,0.90
2019-01-28T13:14:02.589Z,0.75
2019-01-28T13:19:16.062Z,0.70
2019-01-28T13:21:47.749Z,0.70
2019-01-28T13:26:50.297Z,0.90
2019-01-28T13:29:21.901Z,0.80
2019-01-28T13:31:53.713Z,0.80
2019-01-28T13:36:56.024Z,0.85
2019-01-28T13:39:27.745Z,0.88
2019-01-28T13:44:30.689Z,1.00
2019-01-28T13:49:38.220Z,0.70
2019-01-28T13:52:06.702Z,0.62
2019-01-28T13:57:09.311Z,0.80
2019-01-28T13:59:40.848Z,1.00
2019-01-28T14:02:11.313Z,0.72
2019-01-28T14:04:43.310Z,0.90
2019-01-28T14:07:15.046Z,0.80
2019-01-28T14:09:47.742Z,0.72
2019-01-28T14:14:52.302Z,0.85
2019-01-28T14:17:24.308Z,0.80
2019-01-28T14:19:55.988Z,0.75
2019-01-28T14:22:29.886Z,0.70
2019-01-28T14:25:02.403Z,0.80
2019-01-28T14:27:34.301Z,0.80
2019-01-28T14:30:07.051Z,0.82
2019-01-28T14:32:38.874Z,0.70
2019-01-28T14:35:10.769Z,0.70
2019-01-28T14:40:17.007Z,0.80
2019-01-28T14:42:48.757Z,0.78
2019-01-28T14:45:20.526Z,0.70
2019-01-28T14:47:52.778Z,0.80
2019-01-28T14:52:59.310Z,0.72
2019-01-28T14:55:31.070Z,0.90
2019-01-28T14:58:02.771Z,0.70
2019-01-28T15:05:39.266Z,0.70
2019-01-28T15:08:11.310Z,0.80
2019-01-28T15:10:43.300Z,1.00
2019-01-28T15:13:15.061Z,1.00
2019-01-28T15:15:46.773Z,0.80
2019-01-28T15:20:49.771Z,1.10
2019-01-28T15:25:52.299Z,0.62
2019-01-28T15:28:23.832Z,0.70
2019-01-28T15:30:55.546Z,0.80
2019-01-28T15:33:27.366Z,1.20
2019-01-28T15:35:59.309Z,0.80
2019-01-28T15:38:30.853Z,0.90
2019-01-28T15:41:02.604Z,1.05
2019-01-28T15:43:34.269Z,1.00
2019-01-28T15:46:05.998Z,0.90
2019-01-28T15:48:37.737Z,0.90
2019-01-28T15:56:11.265Z,1.00
2019-01-28T15:58:42.849Z,1.25
2019-01-28T16:01:14.576Z,0.90
2019-01-28T16:03:46.298Z,1.17
2019-01-28T16:06:17.752Z,1.12
2019-01-28T16:11:20.306Z,1.20
2019-01-28T16:13:51.722Z,1.10
2019-01-28T16:18:54.746Z,1.00
2019-01-28T16:23:57.260Z,0.80
2019-01-28T16:26:28.813Z,0.80
2019-01-28T16:29:00.506Z,1.00
2019-01-28T16:31:32.338Z,0.88
2019-01-28T16:34:03.874Z,0.90
2019-01-28T16:36:35.392Z,0.82
2019-01-28T16:39:10.810Z,0.88
2019-01-28T16:41:42.422Z,1.10
2019-01-28T16:44:14.269Z,0.70
2019-01-28T16:46:45.858Z,0.90
2019-01-28T16:49:17.800Z,0.90
2019-01-28T16:51:49.382Z,1.00
2019-01-28T16:54:21.062Z,0.80
2019-01-28T16:59:39.951Z,0.80
2019-01-28T17:02:11.720Z,0.82
2019-01-28T17:07:14.314Z,0.80
2019-01-28T17:09:45.941Z,0.80
2019-01-28T17:12:17.781Z,0.90
2019-01-28T17:17:20.310Z,0.80
2019-01-28T17:19:52.796Z,0.60
2019-01-28T17:22:24.570Z,0.80
2019-01-28T17:38:31.305Z,0.90
2019-01-28T17:41:02.861Z,0.90
2019-01-28T17:43:34.839Z,0.90
2019-01-28T17:46:06.755Z,0.90
2019-01-28T17:51:09.317Z,0.90
2019-01-28T17:53:40.876Z,1.10
2019-01-28T17:56:12.902Z,0.72
2019-01-28T17:58:44.752Z,1.05
2019-01-28T18:03:47.306Z,0.80
2019-01-28T18:06:19.535Z,1.00
2019-01-28T18:08:51.741Z,1.00
2019-01-28T18:13:54.749Z,0.82
2019-01-28T18:18:57.622Z,1.22
2019-01-28T18:21:29.545Z,1.00
2019-01-28T18:24:01.260Z,1.00
2019-01-28T18:26:33.259Z,0.72
2019-01-28T18:29:05.337Z,0.80
2019-01-28T18:31:37.381Z,0.78
2019-01-28T18:34:09.298Z,1.07
2019-01-28T18:36:41.066Z,1.10
2019-01-28T18:39:14.737Z,0.80
2019-01-28T18:44:17.298Z,0.95
2019-01-28T18:46:49.689Z,0.80
2019-01-28T18:51:52.298Z,1.00
2019-01-28T18:54:23.863Z,1.10
2019-01-28T18:56:55.404Z,1.07
2019-01-28T18:59:27.048Z,0.95
2019-01-28T19:01:58.757Z,1.17
2019-01-28T19:07:38.061Z,1.22
2019-01-28T19:10:20.762Z,1.37
2019-01-28T19:15:57.463Z,1.20
2019-01-28T19:18:34.381Z,1.60
2019-01-28T19:21:13.995Z,1.00
2019-01-28T19:23:45.769Z,2.10
2019-01-28T19:26:17.775Z,2.10
2019-01-28T19:31:20.061Z,1.20
2019-01-28T19:34:50.665Z,1.40
2019-01-28T19:37:22.746Z,2.10
2019-01-28T19:42:25.650Z,2.15
2019-01-28T19:44:57.441Z,2.58
2019-01-28T19:47:29.436Z,2.47
2019-01-28T19:50:01.328Z,2.92
2019-01-28T19:52:33.111Z,2.50
2019-01-28T19:55:06.336Z,2.80
2019-01-28T19:57:39.076Z,2.87
2019-01-28T20:00:26.409Z,2.90
2019-01-28T20:03:01.749Z,2.12
2019-01-28T20:08:04.717Z,2.30
2019-01-28T20:23:14.386Z,4.35
2019-01-28T20:25:46.313Z,2.80
2019-01-28T20:28:17.875Z,2.22
2019-01-28T20:30:49.712Z,1.90
2019-01-28T20:35:52.293Z,1.80
2019-01-28T20:38:23.844Z,1.57
2019-01-28T20:40:55.328Z,1.10
2019-01-28T20:43:27.326Z,1.02
2019-01-28T20:45:59.316Z,1.35
2019-01-28T20:48:30.842Z,1.07
2019-01-28T20:51:02.813Z,1.30
2019-01-28T20:53:34.750Z,1.30
2019-01-28T20:58:37.285Z,1.20
2019-01-28T21:01:08.841Z,0.80
2019-01-28T21:03:40.739Z,0.80
2019-01-28T21:13:46.868Z,1.27
2019-01-28T21:16:19.803Z,1.15
2019-01-28T21:18:51.744Z,0.98
2019-01-28T21:21:23.378Z,1.10
2019-01-28T21:23:55.048Z,1.00
2019-01-28T21:26:26.845Z,0.72
2019-01-28T21:28:58.770Z,1.07
2019-01-28T21:34:01.292Z,0.90
2019-01-28T21:36:58.121Z,0.90
2019-01-28T21:39:29.782Z,0.90
2019-01-28T21:42:01.769Z,1.33
2019-01-28T21:47:05.068Z,0.90
2019-01-28T21:49:36.757Z,1.55
2019-01-28T21:54:39.374Z,1.60
2019-01-28T21:57:11.748Z,1.70
2019-01-28T21:59:43.387Z,1.00
2019-01-28T22:02:15.299Z,1.90
2019-01-28T22:04:46.836Z,1.20
2019-01-28T22:07:19.060Z,1.10
2019-01-28T22:09:51.302Z,1.60
2019-01-28T22:12:22.952Z,1.20
2019-01-28T22:14:54.780Z,1.67
2019-01-28T22:22:28.887Z,1.10
2019-01-28T22:25:00.827Z,0.90
2019-01-28T22:27:32.414Z,1.30
2019-01-28T22:30:04.030Z,1.25
2019-01-28T22:32:35.799Z,1.25
2019-01-28T22:35:09.484Z,1.30
2019-01-28T22:37:41.297Z,1.50
2019-01-28T22:40:14.780Z,1.20
2019-01-28T22:45:18.794Z,1.10
2019-01-28T22:47:50.491Z,1.00
2019-01-28T22:50:24.034Z,1.20
2019-01-28T22:52:55.904Z,1.02
2019-01-28T22:55:27.781Z,1.17
2019-01-28T23:00:50.437Z,1.30
2019-01-28T23:03:29.301Z,1.10
2019-01-28T23:06:01.310Z,1.00
2019-01-28T23:08:33.054Z,0.93
2019-01-28T23:11:04.711Z,1.00
2019-01-28T23:16:08.737Z,1.15
2019-01-28T23:21:11.605Z,1.02
2019-01-28T23:23:43.723Z,1.30
2019-01-28T23:28:46.305Z,1.20
2019-01-28T23:31:17.826Z,1.17
2019-01-28T23:33:50.089Z,1.10
2019-01-28T23:36:21.782Z,0.85
2019-01-28T23:41:24.305Z,1.57
2019-01-28T23:43:55.830Z,1.10
2019-01-28T23:46:27.782Z,1.00
2019-01-28T23:48:59.373Z,1.10
2019-01-28T23:51:31.074Z,1.32
2019-01-28T23:54:02.791Z,0.82
2019-01-28T23:59:05.575Z,1.20
